createdAt,value
2019-03-10T00:01:40.184Z,4.50
2019-03-10T00:04:06.339Z,3.53
2019-03-10T00:06:32.510Z,3.60
2019-03-10T00:08:59.022Z,3.47
2019-03-10T00:11:25.093Z,2.53
2019-03-10T00:13:51.479Z,4.00
2019-03-10T00:16:17.603Z,3.33
2019-03-10T00:18:43.678Z,2.83
2019-03-10T00:21:09.895Z,2.93
2019-03-10T00:23:36.035Z,3.73
2019-03-10T00:26:02.146Z,2.80
2019-03-10T00:28:28.490Z,3.70
2019-03-10T00:30:56.250Z,3.07
2019-03-10T00:33:22.456Z,3.40
2019-03-10T00:35:48.588Z,3.07
2019-03-10T00:38:15.222Z,4.13
2019-03-10T00:41:05.121Z,2.60
2019-03-10T00:43:47.100Z,2.97
2019-03-10T00:46:20.144Z,3.10
2019-03-10T00:49:02.150Z,3.90
2019-03-10T00:52:08.398Z,3.50
2019-03-10T00:54:36.895Z,3.70
2019-03-10T00:57:03.268Z,3.43
2019-03-10T00:59:30.191Z,3.37
2019-03-10T01:01:56.272Z,4.00
2019-03-10T01:04:22.610Z,3.30
2019-03-10T01:06:49.474Z,3.93
2019-03-10T01:09:15.671Z,3.27
2019-03-10T01:11:41.908Z,3.77
2019-03-10T01:14:08.032Z,3.13
2019-03-10T01:16:34.915Z,3.20
2019-03-10T01:19:02.531Z,2.83
2019-03-10T01:21:28.771Z,3.60
2019-03-10T01:23:54.863Z,2.40
2019-03-10T01:26:21.164Z,4.50
2019-03-10T01:28:47.210Z,3.10
2019-03-10T01:31:38.644Z,2.63
2019-03-10T01:34:39.266Z,3.00
2019-03-10T01:37:05.462Z,3.63
2019-03-10T01:39:31.554Z,3.37
2019-03-10T01:41:58.598Z,3.47
2019-03-10T01:44:24.927Z,3.40
2019-03-10T01:46:51.139Z,3.80
2019-03-10T01:49:17.618Z,3.23
2019-03-10T01:51:51.780Z,3.47
2019-03-10T01:54:17.988Z,3.07
2019-03-10T01:56:44.574Z,4.20
2019-03-10T01:59:10.744Z,3.83
2019-03-10T02:01:36.905Z,3.53
2019-03-10T02:04:03.199Z,2.90
2019-03-10T02:06:29.614Z,4.20
2019-03-10T02:08:56.008Z,3.30
2019-03-10T02:11:22.338Z,4.97
2019-03-10T02:13:48.459Z,3.60
2019-03-10T02:16:14.712Z,2.97
2019-03-10T02:18:41.002Z,3.63
2019-03-10T02:21:07.305Z,3.33
2019-03-10T02:23:33.487Z,2.90
2019-03-10T02:25:59.758Z,3.80
2019-03-10T02:28:25.815Z,3.60
2019-03-10T02:30:52.060Z,3.37
2019-03-10T02:33:18.176Z,4.47
2019-03-10T02:35:44.361Z,4.20
2019-03-10T02:38:10.515Z,4.30
2019-03-10T02:40:37.199Z,4.03
2019-03-10T02:43:03.300Z,4.83
2019-03-10T02:45:29.386Z,4.60
2019-03-10T02:47:55.460Z,5.20
2019-03-10T02:50:21.644Z,5.43
2019-03-10T02:52:47.808Z,4.90
2019-03-10T02:55:13.931Z,4.73
2019-03-10T02:57:40.023Z,5.50
2019-03-10T03:00:10.107Z,3.97
2019-03-10T03:02:36.531Z,3.43
2019-03-10T03:05:08.266Z,4.13
2019-03-10T03:07:34.297Z,3.93
2019-03-10T03:10:00.831Z,6.00
2019-03-10T03:12:27.017Z,3.50
2019-03-10T03:14:54.415Z,4.20
2019-03-10T03:17:20.564Z,4.13
2019-03-10T03:19:46.622Z,4.57
2019-03-10T03:22:12.687Z,3.97
2019-03-10T03:24:38.712Z,3.90
2019-03-10T03:27:05.037Z,4.43
2019-03-10T03:29:31.167Z,4.53
2019-03-10T03:31:57.368Z,3.77
2019-03-10T03:34:23.552Z,4.40
2019-03-10T03:36:49.859Z,4.07
2019-03-10T03:39:25.336Z,4.63
2019-03-10T03:41:51.625Z,4.33
2019-03-10T03:44:18.130Z,4.53
2019-03-10T03:46:44.179Z,4.17
2019-03-10T03:49:10.315Z,5.33
2019-03-10T03:51:36.513Z,6.53
2019-03-10T03:54:02.737Z,4.37
2019-03-10T03:56:29.108Z,4.03
2019-03-10T03:58:55.709Z,4.03
2019-03-10T04:01:32.509Z,5.23
2019-03-10T04:04:18.526Z,4.47
2019-03-10T04:06:58.256Z,3.23
2019-03-10T04:09:24.476Z,3.70
2019-03-10T04:11:50.622Z,3.63
2019-03-10T04:14:16.806Z,3.70
2019-03-10T04:16:43.016Z,4.57
2019-03-10T04:19:09.287Z,3.30
2019-03-10T04:21:35.796Z,4.47
2019-03-10T04:24:01.923Z,4.67
2019-03-10T04:26:28.483Z,5.40
2019-03-10T04:28:54.819Z,4.50
2019-03-10T04:31:21.219Z,3.97
2019-03-10T04:33:47.264Z,4.30
2019-03-10T04:36:13.623Z,3.50
2019-03-10T04:38:39.770Z,4.40
2019-03-10T04:41:05.827Z,4.40
2019-03-10T04:43:31.926Z,3.43
2019-03-10T04:45:58.010Z,4.00
2019-03-10T04:48:24.137Z,6.00
2019-03-10T04:50:50.260Z,4.00
2019-03-10T04:53:16.390Z,5.00
2019-03-10T04:55:44.490Z,4.00
2019-03-10T04:58:12.722Z,4.93
2019-03-10T05:00:41.838Z,4.80
2019-03-10T05:03:08.057Z,4.47
2019-03-10T05:05:34.305Z,4.43
2019-03-10T05:08:00.782Z,6.03
2019-03-10T05:10:27.257Z,4.57
2019-03-10T05:12:53.485Z,5.67
2019-03-10T05:15:19.518Z,4.83
2019-03-10T05:17:45.690Z,3.83
2019-03-10T05:20:12.178Z,3.77
2019-03-10T05:22:38.335Z,3.20
2019-03-10T05:25:11.103Z,4.40
2019-03-10T05:27:37.295Z,4.10
2019-03-10T05:30:07.248Z,4.57
2019-03-10T05:32:34.952Z,4.60
2019-03-10T05:35:01.019Z,2.70
2019-03-10T05:37:27.142Z,1.93
2019-03-10T05:39:53.590Z,2.20
2019-03-10T05:42:19.684Z,2.20
2019-03-10T05:44:45.976Z,2.10
2019-03-10T05:47:13.919Z,1.83
2019-03-10T05:49:40.260Z,1.87
2019-03-10T05:52:06.458Z,2.37
2019-03-10T05:54:32.568Z,2.27
2019-03-10T05:56:58.811Z,2.10
2019-03-10T05:59:25.232Z,2.70
2019-03-10T06:01:51.751Z,3.13
2019-03-10T06:04:17.920Z,3.10
2019-03-10T06:06:44.035Z,3.70
2019-03-10T06:09:10.277Z,4.50
2019-03-10T06:11:36.527Z,3.83
2019-03-10T06:14:02.783Z,4.10
2019-03-10T06:16:29.085Z,3.20
2019-03-10T06:18:55.135Z,3.33
2019-03-10T06:21:21.223Z,4.40
2019-03-10T06:23:47.788Z,4.10
2019-03-10T06:26:13.885Z,3.70
2019-03-10T06:28:39.911Z,3.80
2019-03-10T06:31:06.038Z,3.83
2019-03-10T06:33:32.120Z,4.77
2019-03-10T06:35:58.173Z,5.10
2019-03-10T06:38:24.197Z,4.10
2019-03-10T06:40:50.632Z,4.10
2019-03-10T06:43:16.672Z,4.20
2019-03-10T06:45:42.762Z,3.83
2019-03-10T06:48:08.935Z,4.07
2019-03-10T06:50:35.069Z,3.80
2019-03-10T06:53:01.185Z,4.60
2019-03-10T06:55:27.282Z,4.70
2019-03-10T06:57:53.348Z,3.97
2019-03-10T07:00:19.466Z,4.10
2019-03-10T07:02:45.664Z,3.60
2019-03-10T07:05:11.825Z,3.53
2019-03-10T07:07:37.942Z,5.43
2019-03-10T07:10:07.344Z,4.20
2019-03-10T07:12:33.650Z,3.63
2019-03-10T07:14:59.875Z,3.97
2019-03-10T07:17:26.181Z,4.10
2019-03-10T07:19:52.400Z,5.70
2019-03-10T07:22:21.939Z,3.67
2019-03-10T07:24:47.995Z,3.10
2019-03-10T07:27:14.402Z,3.60
2019-03-10T07:29:42.368Z,3.60
2019-03-10T07:32:13.148Z,3.00
2019-03-10T07:34:41.355Z,3.60
2019-03-10T07:37:21.434Z,4.30
2019-03-10T07:39:52.452Z,3.83
2019-03-10T07:42:32.501Z,3.50
2019-03-10T07:45:00.538Z,3.60
2019-03-10T07:47:40.486Z,3.77
2019-03-10T07:50:14.658Z,4.10
2019-03-10T07:52:42.765Z,4.53
2019-03-10T07:55:12.425Z,3.77
2019-03-10T07:57:43.311Z,3.63
2019-03-10T08:00:11.634Z,3.43
2019-03-10T08:02:42.168Z,3.00
2019-03-10T08:05:27.682Z,4.40
2019-03-10T08:08:14.000Z,2.63
2019-03-10T08:10:44.985Z,3.80
2019-03-10T08:13:25.121Z,3.07
2019-03-10T08:16:01.907Z,3.33
2019-03-10T08:18:31.365Z,2.93
2019-03-10T08:21:02.421Z,2.93
2019-03-10T08:23:30.378Z,3.90
2019-03-10T08:26:08.997Z,4.03
2019-03-10T08:28:37.023Z,2.77
2019-03-10T08:31:17.261Z,4.67
2019-03-10T08:34:03.535Z,3.13
2019-03-10T08:36:31.620Z,3.10
2019-03-10T08:39:08.854Z,2.70
2019-03-10T08:41:43.046Z,3.30
2019-03-10T08:44:29.450Z,4.23
2019-03-10T08:46:57.482Z,3.20
2019-03-10T08:49:44.796Z,3.30
2019-03-10T08:52:04.804Z,2.93
2019-03-10T08:54:39.009Z,3.13
2019-03-10T08:57:07.326Z,3.60
2019-03-10T09:02:30.691Z,2.57
2019-03-10T09:04:58.747Z,3.43
2019-03-10T09:07:38.605Z,3.93
2019-03-10T09:10:28.128Z,2.80
2019-03-10T09:13:11.734Z,2.93
2019-03-10T09:15:46.048Z,2.90
2019-03-10T09:18:14.199Z,3.50
2019-03-10T09:20:44.905Z,3.00
2019-03-10T09:23:12.978Z,3.90
2019-03-10T09:25:52.905Z,5.03
2019-03-10T09:28:24.032Z,4.43
2019-03-10T09:30:52.162Z,3.30
2019-03-10T09:33:20.280Z,3.20
2019-03-10T09:35:54.252Z,3.60
2019-03-10T09:38:25.699Z,2.67
2019-03-10T09:40:57.082Z,3.37
2019-03-10T09:43:28.303Z,3.50
2019-03-10T09:46:05.862Z,3.10
2019-03-10T09:48:33.922Z,2.60
2019-03-10T09:51:03.095Z,3.13
2019-03-10T09:53:37.097Z,2.67
2019-03-10T09:56:20.328Z,2.90
2019-03-10T09:58:54.445Z,4.10
2019-03-10T10:01:27.991Z,3.17
2019-03-10T10:03:56.091Z,2.87
2019-03-10T10:06:33.469Z,3.20
2019-03-10T10:09:04.067Z,3.30
2019-03-10T10:11:37.841Z,2.67
2019-03-10T10:14:13.014Z,2.60
2019-03-10T10:16:46.811Z,2.90
2019-03-10T10:19:31.958Z,2.57
2019-03-10T10:22:12.239Z,2.60
2019-03-10T10:24:56.678Z,3.83
2019-03-10T10:27:24.639Z,3.20
2019-03-10T10:30:09.351Z,2.50
2019-03-10T10:32:46.169Z,2.90
2019-03-10T10:35:14.327Z,3.40
2019-03-10T10:37:42.417Z,2.80
2019-03-10T10:40:28.766Z,2.47
2019-03-10T10:43:08.717Z,3.00
2019-03-10T10:45:57.163Z,2.80
2019-03-10T10:48:37.322Z,2.40
2019-03-10T10:51:07.125Z,4.73
2019-03-10T10:53:53.134Z,2.17
2019-03-10T10:56:27.283Z,2.93
2019-03-10T10:59:10.839Z,3.47
2019-03-10T11:01:41.414Z,2.57
2019-03-10T11:04:26.040Z,4.00
2019-03-10T11:07:09.801Z,2.30
2019-03-10T11:09:50.027Z,2.43
2019-03-10T11:12:27.120Z,2.00
2019-03-10T11:14:56.268Z,2.90
2019-03-10T11:17:30.112Z,4.43
2019-03-10T11:20:16.495Z,2.90
2019-03-10T11:22:50.550Z,2.57
2019-03-10T11:25:27.871Z,2.97
2019-03-10T11:28:01.922Z,3.10
2019-03-10T11:30:34.042Z,2.20
2019-03-10T11:33:10.717Z,1.90
2019-03-10T11:35:38.850Z,2.07
2019-03-10T11:38:13.122Z,1.90
2019-03-10T11:40:44.206Z,2.00
2019-03-10T11:43:30.161Z,2.40
2019-03-10T11:46:29.729Z,1.70
2019-03-10T11:49:14.235Z,2.40
2019-03-10T11:51:42.355Z,2.00
2019-03-10T11:54:22.539Z,2.37
2019-03-10T11:56:50.557Z,2.00
2019-03-10T11:59:18.680Z,2.07
2019-03-10T12:01:55.743Z,3.03
2019-03-10T12:04:26.710Z,2.17
2019-03-10T12:06:57.477Z,2.00
2019-03-10T12:09:25.694Z,2.60
2019-03-10T12:11:51.869Z,2.90
2019-03-10T12:14:18.433Z,1.97
2019-03-10T12:16:44.582Z,2.50
2019-03-10T12:19:11.081Z,1.87
2019-03-10T12:21:37.103Z,2.00
2019-03-10T12:24:03.242Z,2.60
2019-03-10T12:26:29.366Z,2.80
2019-03-10T12:28:55.450Z,1.83
2019-03-10T12:31:21.542Z,2.17
2019-03-10T12:33:47.598Z,1.77
2019-03-10T12:36:13.702Z,1.70
2019-03-10T12:38:39.830Z,2.97
2019-03-10T12:41:06.182Z,2.10
2019-03-10T12:43:32.476Z,2.27
2019-03-10T12:45:58.608Z,2.30
2019-03-10T12:48:24.665Z,2.00
2019-03-10T12:50:50.768Z,2.00
2019-03-10T12:53:16.971Z,3.50
2019-03-10T12:55:43.173Z,2.23
2019-03-10T12:58:09.393Z,2.43
2019-03-10T13:00:35.524Z,1.83
2019-03-10T13:03:01.950Z,1.60
2019-03-10T13:05:28.497Z,2.00
2019-03-10T13:07:54.853Z,1.87
2019-03-10T13:10:21.095Z,2.10
2019-03-10T13:12:47.276Z,1.60
2019-03-10T13:15:13.471Z,1.33
2019-03-10T13:17:39.700Z,1.83
2019-03-10T13:20:10.749Z,1.93
2019-03-10T13:22:37.001Z,1.73
2019-03-10T13:25:06.312Z,1.80
2019-03-10T13:27:32.446Z,1.47
2019-03-10T13:29:58.507Z,1.57
2019-03-10T13:32:24.646Z,1.87
2019-03-10T13:34:50.965Z,2.03
2019-03-10T13:37:17.148Z,2.70
2019-03-10T13:39:43.280Z,1.70
2019-03-10T13:42:10.631Z,1.40
2019-03-10T13:44:36.725Z,1.80
2019-03-10T13:47:02.876Z,2.17
2019-03-10T13:49:29.112Z,2.17
2019-03-10T13:51:55.240Z,2.13
2019-03-10T13:54:21.462Z,2.20
2019-03-10T13:56:47.613Z,2.37
2019-03-10T13:59:13.740Z,1.70
2019-03-10T14:01:39.885Z,2.40
2019-03-10T14:04:06.022Z,1.50
2019-03-10T14:06:32.338Z,3.00
2019-03-10T14:08:58.366Z,3.10
2019-03-10T14:11:24.562Z,1.60
2019-03-10T14:13:50.682Z,1.80
2019-03-10T14:16:16.867Z,2.30
2019-03-10T14:18:43.012Z,2.40
2019-03-10T14:21:09.162Z,1.90
2019-03-10T14:23:35.260Z,2.03
2019-03-10T14:26:08.914Z,1.67
2019-03-10T14:28:35.294Z,2.23
2019-03-10T14:31:01.356Z,2.37
2019-03-10T14:33:27.755Z,2.10
2019-03-10T14:35:53.776Z,2.90
2019-03-10T14:38:19.905Z,1.70
2019-03-10T14:40:48.211Z,2.10
2019-03-10T14:43:14.655Z,2.23
2019-03-10T14:45:40.681Z,2.60
2019-03-10T14:48:06.763Z,2.20
2019-03-10T14:50:32.832Z,1.80
2019-03-10T14:52:58.838Z,2.50
2019-03-10T14:55:25.292Z,2.73
2019-03-10T14:57:51.519Z,1.83
2019-03-10T15:00:28.586Z,2.20
2019-03-10T15:02:54.808Z,2.70
2019-03-10T15:05:21.144Z,2.17
2019-03-10T15:07:47.581Z,2.37
2019-03-10T15:10:14.189Z,1.90
2019-03-10T15:12:40.718Z,1.93
2019-03-10T15:15:09.945Z,2.50
2019-03-10T15:17:36.136Z,1.90
2019-03-10T15:20:05.008Z,1.70
2019-03-10T15:22:31.435Z,1.90
2019-03-10T15:24:57.931Z,2.20
2019-03-10T15:27:24.369Z,2.17
2019-03-10T15:29:50.902Z,2.27
2019-03-10T15:32:17.130Z,2.23
2019-03-10T15:34:43.161Z,2.57
2019-03-10T15:37:09.354Z,2.50
2019-03-10T15:39:35.487Z,2.57
2019-03-10T15:42:01.787Z,2.57
2019-03-10T15:44:27.931Z,2.47
2019-03-10T15:46:53.990Z,2.90
2019-03-10T15:49:20.289Z,2.17
2019-03-10T15:51:46.655Z,2.20
2019-03-10T15:54:12.994Z,2.30
2019-03-10T15:56:39.114Z,3.00
2019-03-10T15:59:05.207Z,1.73
2019-03-10T16:01:31.256Z,2.90
2019-03-10T16:04:01.112Z,3.40
2019-03-10T16:06:27.301Z,2.50
2019-03-10T16:08:53.426Z,2.07
2019-03-10T16:11:23.133Z,2.20
2019-03-10T16:13:49.158Z,2.43
2019-03-10T16:16:16.483Z,2.70
2019-03-10T16:18:42.655Z,2.90
2019-03-10T16:21:09.389Z,3.37
2019-03-10T16:23:35.647Z,2.90
2019-03-10T16:26:01.917Z,2.27
2019-03-10T16:28:27.989Z,2.63
2019-03-10T16:31:00.207Z,3.30
2019-03-10T16:33:26.271Z,3.60
2019-03-10T16:35:52.562Z,2.90
2019-03-10T16:38:18.692Z,2.73
2019-03-10T16:40:44.849Z,2.77
2019-03-10T16:43:10.866Z,2.03
2019-03-10T16:45:37.009Z,3.37
2019-03-10T16:48:04.670Z,2.77
2019-03-10T16:50:30.903Z,2.63
2019-03-10T16:52:57.082Z,2.97
2019-03-10T16:55:23.459Z,2.90
2019-03-10T16:57:49.797Z,2.43
2019-03-10T17:00:18.468Z,2.67
2019-03-10T17:02:44.744Z,2.63
2019-03-10T17:05:18.545Z,3.33
2019-03-10T17:07:47.190Z,3.20
2019-03-10T17:10:15.200Z,3.33
2019-03-10T17:12:41.384Z,3.27
2019-03-10T17:15:19.096Z,5.33
2019-03-10T17:17:45.209Z,3.10
2019-03-10T17:20:13.512Z,3.00
2019-03-10T17:22:40.233Z,3.40
2019-03-10T17:25:07.798Z,3.20
2019-03-10T17:27:33.815Z,4.40
2019-03-10T17:30:00.345Z,3.30
2019-03-10T17:32:26.578Z,2.47
2019-03-10T17:34:52.778Z,3.10
2019-03-10T17:37:18.894Z,2.43
2019-03-10T17:39:45.027Z,3.03
2019-03-10T17:42:11.277Z,3.00
2019-03-10T17:44:41.381Z,3.10
2019-03-10T17:47:05.713Z,2.90
2019-03-10T17:49:32.284Z,3.63
2019-03-10T17:51:58.767Z,3.40
2019-03-10T17:54:24.809Z,3.33
2019-03-10T17:56:51.149Z,2.70
2019-03-10T17:59:17.388Z,2.57
2019-03-10T18:01:43.741Z,3.53
2019-03-10T18:04:10.042Z,3.20
2019-03-10T18:06:36.331Z,2.30
2019-03-10T18:09:04.511Z,2.80
2019-03-10T18:11:30.993Z,2.47
2019-03-10T18:13:57.208Z,2.90
2019-03-10T18:16:23.323Z,2.30
2019-03-10T18:18:49.427Z,2.40
2019-03-10T18:21:15.480Z,3.27
2019-03-10T18:23:41.827Z,3.27
2019-03-10T18:26:08.252Z,2.70
2019-03-10T18:28:34.399Z,3.60
2019-03-10T18:31:00.832Z,2.50
2019-03-10T18:33:27.242Z,2.33
2019-03-10T18:35:53.668Z,3.33
2019-03-10T18:38:19.796Z,2.67
2019-03-10T18:40:46.006Z,2.63
2019-03-10T18:43:12.361Z,2.40
2019-03-10T18:45:38.804Z,3.03
2019-03-10T18:48:05.091Z,2.60
2019-03-10T18:50:31.379Z,2.40
2019-03-10T18:52:57.622Z,2.80
2019-03-10T18:55:24.228Z,2.40
2019-03-10T18:57:52.210Z,2.97
2019-03-10T19:00:26.163Z,2.50
2019-03-10T19:02:53.112Z,1.90
2019-03-10T19:05:20.619Z,2.20
2019-03-10T19:07:46.939Z,3.03
2019-03-10T19:10:13.439Z,2.67
2019-03-10T19:12:39.488Z,3.43
2019-03-10T19:15:09.430Z,2.13
2019-03-10T19:17:36.796Z,3.83
2019-03-10T19:20:06.498Z,2.67
2019-03-10T19:22:32.687Z,2.90
2019-03-10T19:24:58.718Z,2.23
2019-03-10T19:27:30.209Z,2.43
2019-03-10T19:29:53.054Z,3.03
2019-03-10T19:32:19.158Z,2.73
2019-03-10T19:34:45.289Z,2.43
2019-03-10T19:37:11.641Z,3.00
2019-03-10T19:39:37.767Z,1.90
2019-03-10T19:42:03.832Z,1.80
2019-03-10T19:44:29.906Z,1.97
2019-03-10T19:46:56.313Z,2.10
2019-03-10T19:49:24.183Z,1.97
2019-03-10T19:51:50.286Z,2.93
2019-03-10T19:54:16.438Z,2.00
2019-03-10T19:56:42.559Z,2.33
2019-03-10T19:59:08.593Z,4.67
2019-03-10T20:01:34.710Z,1.83
2019-03-10T20:04:01.073Z,2.57
2019-03-10T20:06:27.080Z,2.50
2019-03-10T20:08:53.129Z,1.73
2019-03-10T20:11:19.189Z,2.50
2019-03-10T20:14:05.248Z,1.80
2019-03-10T20:16:31.715Z,2.70
2019-03-10T20:18:57.821Z,2.47
2019-03-10T20:21:24.069Z,2.13
2019-03-10T20:23:50.386Z,2.90
2019-03-10T20:26:16.531Z,2.53
2019-03-10T20:28:43.906Z,2.60
2019-03-10T20:31:09.998Z,2.40
2019-03-10T20:33:36.381Z,2.07
2019-03-10T20:36:02.687Z,2.83
2019-03-10T20:38:28.826Z,1.70
2019-03-10T20:40:54.949Z,1.70
2019-03-10T20:43:21.180Z,2.10
2019-03-10T20:45:47.277Z,2.00
2019-03-10T20:48:13.375Z,3.20
2019-03-10T20:50:39.939Z,2.33
2019-03-10T20:53:06.070Z,2.30
2019-03-10T20:55:32.299Z,2.50
2019-03-10T20:57:58.627Z,1.90
2019-03-10T21:00:26.821Z,1.97
2019-03-10T21:02:53.359Z,1.93
2019-03-10T21:05:19.554Z,1.50
2019-03-10T21:07:45.846Z,1.73
2019-03-10T21:10:21.140Z,2.73
2019-03-10T21:12:47.265Z,2.03
2019-03-10T21:15:15.319Z,3.77
2019-03-10T21:17:41.541Z,1.80
2019-03-10T21:20:12.905Z,2.30
2019-03-10T21:22:39.230Z,2.57
2019-03-10T21:25:17.867Z,2.13
2019-03-10T21:27:44.094Z,1.67
2019-03-10T21:30:19.045Z,2.37
2019-03-10T21:32:45.107Z,2.20
2019-03-10T21:35:17.657Z,1.70
2019-03-10T21:37:39.067Z,1.90
2019-03-10T21:40:11.523Z,2.17
2019-03-10T21:42:37.621Z,1.70
2019-03-10T21:45:06.032Z,2.70
2019-03-10T21:47:32.048Z,3.73
2019-03-10T21:49:58.154Z,3.20
2019-03-10T21:52:24.358Z,2.20
2019-03-10T21:54:50.428Z,1.83
2019-03-10T21:57:16.558Z,2.10
2019-03-10T21:59:42.656Z,2.10
2019-03-10T22:02:08.759Z,2.30
2019-03-10T22:04:34.850Z,2.43
2019-03-10T22:07:01.180Z,2.20
2019-03-10T22:09:27.308Z,2.17
2019-03-10T22:11:53.391Z,2.10
2019-03-10T22:14:19.433Z,1.80
2019-03-10T22:16:45.623Z,2.27
2019-03-10T22:19:21.953Z,2.67
2019-03-10T22:21:39.939Z,2.27
2019-03-10T22:24:06.273Z,2.67
2019-03-10T22:26:32.328Z,2.20
2019-03-10T22:29:04.382Z,1.90
2019-03-10T22:31:30.743Z,1.97
2019-03-10T22:33:56.985Z,1.77
2019-03-10T22:36:23.088Z,1.90
2019-03-10T22:38:49.296Z,2.07
2019-03-10T22:41:15.433Z,1.90
2019-03-10T22:43:41.579Z,1.60
2019-03-10T22:46:07.768Z,1.60
2019-03-10T22:48:33.880Z,2.50
2019-03-10T22:51:00.007Z,3.00
2019-03-10T22:53:26.075Z,2.27
2019-03-10T22:55:52.163Z,1.87
2019-03-10T22:58:18.383Z,2.27
2019-03-10T23:00:46.389Z,2.40
2019-03-10T23:03:12.594Z,1.77
2019-03-10T23:05:41.377Z,1.83
2019-03-10T23:08:06.787Z,1.60
2019-03-10T23:10:33.136Z,2.00
2019-03-10T23:12:59.302Z,2.47
2019-03-10T23:15:25.625Z,2.30
2019-03-10T23:17:51.835Z,2.57
2019-03-10T23:20:17.941Z,1.50
2019-03-10T23:22:44.156Z,1.73
2019-03-10T23:25:10.741Z,2.03
2019-03-10T23:27:37.067Z,2.20
2019-03-10T23:30:06.528Z,2.10
2019-03-10T23:32:32.726Z,1.70
2019-03-10T23:34:58.748Z,1.80
2019-03-10T23:37:24.983Z,2.43
2019-03-10T23:39:51.136Z,2.20
2019-03-10T23:42:17.407Z,2.07
2019-03-10T23:44:43.558Z,1.80
2019-03-10T23:47:09.763Z,1.73
2019-03-10T23:49:39.805Z,2.00
2019-03-10T23:52:06.368Z,1.83
2019-03-10T23:54:38.648Z,1.70
2019-03-10T23:57:04.788Z,2.07
2019-03-10T23:59:30.972Z,1.70
